createdAt,value
2023-01-19T00:01:43.362Z,98831.04
2023-01-19T00:04:12.868Z,98835.95
2023-01-19T00:06:41.045Z,98842.39
2023-01-19T00:09:09.641Z,98856.17
2023-01-19T00:11:38.315Z,98870.96
2023-01-19T00:14:06.595Z,98877.30
2023-01-19T00:16:35.033Z,98880.80
2023-01-19T00:19:03.665Z,98887.06
2023-01-19T00:21:31.856Z,98870.59
2023-01-19T00:24:00.954Z,98885.61
2023-01-19T00:26:29.134Z,98888.48
2023-01-19T00:28:57.299Z,98896.92
2023-01-19T00:31:25.484Z,98905.10
2023-01-19T00:33:53.601Z,98907.30
2023-01-19T00:36:21.720Z,98909.48
2023-01-19T00:38:50.009Z,98915.14
2023-01-19T00:41:18.402Z,98919.21
2023-01-19T00:43:46.659Z,98917.86
2023-01-19T00:46:14.771Z,98921.52
2023-01-19T00:48:43.015Z,98919.98
2023-01-19T00:51:11.194Z,98928.69
2023-01-19T00:53:39.367Z,98932.90
2023-01-19T00:56:07.963Z,98932.82
2023-01-19T00:58:36.136Z,98937.45
2023-01-19T01:01:06.143Z,98946.71
2023-01-19T01:03:34.433Z,98952.48
2023-01-19T01:06:03.822Z,98953.69
2023-01-19T01:08:31.990Z,98955.48
2023-01-19T01:11:00.496Z,98957.83
2023-01-19T01:13:29.296Z,98961.30
2023-01-19T01:15:57.984Z,98966.45
2023-01-19T01:18:26.458Z,98972.09
2023-01-19T01:21:04.284Z,98981.20
2023-01-19T01:23:33.572Z,98978.77
2023-01-19T01:26:02.359Z,98977.13
2023-01-19T01:28:31.763Z,98983.05
2023-01-19T01:31:00.044Z,98986.66
2023-01-19T01:33:40.530Z,98988.70
2023-01-19T01:36:12.015Z,98990.66
2023-01-19T01:38:41.614Z,98993.34
2023-01-19T01:41:11.303Z,98991.52
2023-01-19T01:43:58.679Z,98994.83
2023-01-19T01:46:28.647Z,98988.52
2023-01-19T01:49:19.652Z,98982.58
2023-01-19T01:51:53.464Z,98984.48
2023-01-19T01:54:25.323Z,98990.35
2023-01-19T01:56:57.646Z,98993.02
2023-01-19T01:59:35.018Z,98999.96
2023-01-19T02:02:31.349Z,99003.17
2023-01-19T02:05:04.311Z,99006.77
2023-01-19T02:08:01.156Z,99005.15
2023-01-19T02:10:47.662Z,99005.77
2023-01-19T02:13:22.089Z,99006.81
2023-01-19T02:15:53.448Z,99007.77
2023-01-19T02:18:23.955Z,99009.16
2023-01-19T02:21:12.739Z,99013.73
2023-01-19T02:23:45.206Z,99011.55
2023-01-19T02:26:17.801Z,99010.48
2023-01-19T02:29:07.879Z,99021.67
2023-01-19T02:31:37.797Z,99021.52
2023-01-19T02:34:08.876Z,99021.98
2023-01-19T02:36:56.077Z,99023.81
2023-01-19T02:39:36.977Z,99023.83
2023-01-19T02:42:13.424Z,99023.89
2023-01-19T02:44:45.380Z,99013.94
2023-01-19T02:47:14.509Z,99025.61
2023-01-19T02:49:42.653Z,99028.06
2023-01-19T02:52:16.511Z,99028.46
2023-01-19T02:55:02.260Z,99029.41
2023-01-19T02:57:36.676Z,99024.89
2023-01-19T03:00:42.845Z,99023.42
2023-01-19T03:03:22.797Z,99022.39
2023-01-19T03:06:09.012Z,99021.73
2023-01-19T03:08:46.185Z,99015.11
2023-01-19T03:11:15.687Z,99015.40
2023-01-19T03:13:54.727Z,99021.23
2023-01-19T03:16:50.216Z,99023.45
2023-01-19T03:19:23.956Z,99027.45
2023-01-19T03:21:58.271Z,99017.58
2023-01-19T03:24:31.052Z,99028.90
2023-01-19T03:27:04.915Z,99014.77
2023-01-19T03:29:37.137Z,99027.20
2023-01-19T03:32:09.614Z,99030.92
2023-01-19T03:34:39.744Z,99028.08
2023-01-19T03:37:10.687Z,99024.67
2023-01-19T03:39:38.973Z,99027.33
2023-01-19T03:42:11.652Z,99017.63
2023-01-19T03:44:42.690Z,99008.89
2023-01-19T03:47:13.832Z,99031.38
2023-01-19T03:49:45.294Z,99027.55
2023-01-19T03:52:14.385Z,99028.65
2023-01-19T03:54:43.596Z,99029.29
2023-01-19T03:57:11.615Z,99033.86
2023-01-19T03:59:39.752Z,99034.84
2023-01-19T04:02:08.242Z,99029.83
2023-01-19T04:04:36.638Z,99029.77
2023-01-19T04:07:04.769Z,99031.61
2023-01-19T04:09:33.055Z,99033.04
2023-01-19T04:12:02.045Z,99033.69
2023-01-19T04:14:30.123Z,99033.54
2023-01-19T04:16:58.403Z,99035.35
2023-01-19T04:19:26.577Z,99035.17
2023-01-19T04:21:55.989Z,99038.55
2023-01-19T04:24:24.128Z,99041.79
2023-01-19T04:26:53.680Z,99048.81
2023-01-19T04:29:21.848Z,99047.63
2023-01-19T04:31:50.028Z,99049.54
2023-01-19T04:34:18.298Z,99058.94
2023-01-19T04:36:47.099Z,99061.05
2023-01-19T04:39:15.774Z,99060.36
2023-01-19T04:41:44.164Z,99067.16
2023-01-19T04:44:12.345Z,99073.71
2023-01-19T04:46:40.670Z,99071.05
2023-01-19T04:49:10.036Z,99081.46
2023-01-19T04:51:38.687Z,99087.89
2023-01-19T04:54:09.376Z,99092.27
2023-01-19T04:56:38.752Z,99100.89
2023-01-19T04:59:07.561Z,99109.93
2023-01-19T05:01:37.126Z,99121.63
2023-01-19T05:04:07.317Z,99123.88
2023-01-19T05:06:36.189Z,99114.23
2023-01-19T05:09:04.851Z,99131.36
2023-01-19T05:11:33.038Z,99139.31
2023-01-19T05:14:01.320Z,99147.88
2023-01-19T05:16:29.881Z,99158.45
2023-01-19T05:18:58.296Z,99162.58
2023-01-19T05:21:26.557Z,99166.68
2023-01-19T05:23:54.738Z,99161.73
2023-01-19T05:26:23.283Z,99166.88
2023-01-19T05:28:51.858Z,99162.76
2023-01-19T05:31:20.280Z,99162.17
2023-01-19T05:33:49.180Z,99159.27
2023-01-19T05:36:17.255Z,99165.61
2023-01-19T05:38:49.853Z,99160.42
2023-01-19T05:41:19.258Z,99154.14
2023-01-19T05:43:47.635Z,99150.52
2023-01-19T05:46:16.196Z,99150.55
2023-01-19T05:48:45.314Z,99145.89
2023-01-19T05:51:13.589Z,99152.09
2023-01-19T05:53:42.287Z,99157.51
2023-01-19T05:56:10.964Z,99160.13
2023-01-19T05:58:39.978Z,99160.77
2023-01-19T06:01:10.522Z,99171.64
2023-01-19T06:03:40.004Z,99173.30
2023-01-19T06:06:08.284Z,99186.55
2023-01-19T06:08:36.662Z,99195.63
2023-01-19T06:11:05.960Z,99203.71
2023-01-19T06:13:34.843Z,99208.44
2023-01-19T06:16:03.693Z,99211.13
2023-01-19T06:18:32.044Z,99205.66
2023-01-19T06:21:04.586Z,99219.58
2023-01-19T06:23:35.056Z,99218.90
2023-01-19T06:26:04.556Z,99212.44
2023-01-19T06:28:33.037Z,99212.95
2023-01-19T06:31:01.871Z,99214.39
2023-01-19T06:33:30.099Z,99223.48
2023-01-19T06:35:58.916Z,99230.19
2023-01-19T06:38:28.318Z,99231.15
2023-01-19T06:41:03.432Z,99230.48
2023-01-19T06:43:31.716Z,99234.69
2023-01-19T06:46:00.867Z,99233.27
2023-01-19T06:48:29.094Z,99235.27
2023-01-19T06:50:59.595Z,99236.17
2023-01-19T06:53:29.237Z,99242.50
2023-01-19T06:56:03.655Z,99245.88
2023-01-19T06:58:34.935Z,99245.50
2023-01-19T07:01:07.136Z,99251.33
2023-01-19T07:03:36.915Z,99253.46
2023-01-19T07:06:09.197Z,99258.52
2023-01-19T07:08:38.280Z,99255.85
2023-01-19T07:11:25.247Z,99258.50
2023-01-19T07:13:57.463Z,99251.46
2023-01-19T07:16:25.755Z,99229.93
2023-01-19T07:18:54.420Z,99246.16
2023-01-19T07:21:22.903Z,99248.75
2023-01-19T07:23:52.620Z,99253.16
2023-01-19T07:26:22.087Z,99251.35
2023-01-19T07:28:51.651Z,99249.32
2023-01-19T07:31:20.375Z,99247.91
2023-01-19T07:33:48.925Z,99248.44
2023-01-19T07:36:17.175Z,99252.73
2023-01-19T07:38:45.364Z,99260.23
2023-01-19T07:41:13.949Z,99258.94
2023-01-19T07:43:42.236Z,99255.67
2023-01-19T07:46:10.569Z,99256.07
2023-01-19T07:48:38.999Z,99254.20
2023-01-19T07:51:13.087Z,99253.73
2023-01-19T07:53:42.153Z,99245.29
2023-01-19T07:56:11.405Z,99244.39
2023-01-19T07:58:39.994Z,99249.15
2023-01-19T08:01:10.823Z,99246.50
2023-01-19T08:03:40.067Z,99239.42
2023-01-19T08:06:19.688Z,99252.45
2023-01-19T08:08:48.883Z,99253.05
2023-01-19T08:11:17.577Z,99256.46
2023-01-19T08:13:45.855Z,99256.21
2023-01-19T08:16:14.051Z,99262.52
2023-01-19T08:18:42.767Z,99265.77
2023-01-19T08:21:11.099Z,99262.21
2023-01-19T08:23:39.513Z,99270.12
2023-01-19T08:26:20.157Z,99274.12
2023-01-19T08:28:48.423Z,99275.30
2023-01-19T08:31:21.021Z,99281.34
2023-01-19T08:33:50.822Z,99285.57
2023-01-19T08:36:19.922Z,99284.94
2023-01-19T08:38:48.505Z,99285.19
2023-01-19T08:41:17.144Z,99285.70
2023-01-19T08:43:46.200Z,99285.05
2023-01-19T08:46:18.740Z,99283.94
2023-01-19T08:48:50.743Z,99286.19
2023-01-19T08:51:19.337Z,99284.06
2023-01-19T08:53:47.714Z,99285.36
2023-01-19T08:56:16.299Z,99285.77
2023-01-19T08:58:46.690Z,99293.58
2023-01-19T09:01:18.865Z,99294.31
2023-01-19T09:03:47.272Z,99291.70
2023-01-19T09:06:20.061Z,99297.36
2023-01-19T09:08:48.437Z,99303.19
2023-01-19T09:11:17.650Z,99315.95
2023-01-19T09:13:46.954Z,99323.83
2023-01-19T09:16:16.239Z,99324.02
2023-01-19T09:18:46.246Z,99334.81
2023-01-19T09:21:15.303Z,99340.23
2023-01-19T09:23:43.660Z,99341.95
2023-01-19T09:26:12.147Z,99348.02
2023-01-19T09:28:40.402Z,99334.61
2023-01-19T09:31:09.417Z,99341.98
2023-01-19T09:33:38.105Z,99338.01
2023-01-19T09:36:07.089Z,99340.38
2023-01-19T09:38:35.471Z,99340.41
2023-01-19T09:41:04.695Z,99337.34
2023-01-19T09:43:47.715Z,99332.98
2023-01-19T09:46:41.686Z,99321.67
2023-01-19T09:49:19.327Z,99327.02
2023-01-19T09:51:50.835Z,99329.77
2023-01-19T09:54:24.343Z,99323.91
2023-01-19T09:56:53.882Z,99318.78
2023-01-19T09:59:28.998Z,99307.00
2023-01-19T10:02:08.223Z,99299.36
2023-01-19T10:05:08.574Z,99310.63
2023-01-19T10:07:53.408Z,99307.08
2023-01-19T10:10:27.943Z,99306.81
2023-01-19T10:13:04.329Z,99303.10
2023-01-19T10:16:11.890Z,99295.27
2023-01-19T10:18:47.901Z,99292.82
2023-01-19T10:21:33.997Z,99297.07
2023-01-19T10:24:06.986Z,99298.43
2023-01-19T10:26:41.636Z,99302.39
2023-01-19T10:29:37.962Z,99304.86
2023-01-19T10:32:21.468Z,99299.71
2023-01-19T10:34:51.511Z,99298.48
2023-01-19T10:37:38.552Z,99296.10
2023-01-19T10:40:13.142Z,99296.58
2023-01-19T10:42:42.654Z,99304.38
2023-01-19T10:45:18.912Z,99308.39
2023-01-19T10:47:49.079Z,99311.46
2023-01-19T10:50:41.350Z,99311.86
2023-01-19T10:53:21.970Z,99308.16
2023-01-19T10:56:11.264Z,99310.02
2023-01-19T10:58:40.740Z,99308.60
2023-01-19T11:01:16.737Z,99311.88
2023-01-19T11:03:45.500Z,99315.10
2023-01-19T11:09:17.144Z,99312.51
2023-01-19T11:11:49.724Z,99312.34
2023-01-19T11:14:22.686Z,99313.92
2023-01-19T11:17:00.212Z,99307.23
2023-01-19T11:19:31.560Z,99310.06
2023-01-19T11:22:21.885Z,99309.63
2023-01-19T11:24:50.537Z,99302.77
2023-01-19T11:27:21.716Z,99301.91
2023-01-19T11:29:59.089Z,99289.98
2023-01-19T11:32:27.883Z,99300.69
2023-01-19T11:34:56.360Z,99302.02
2023-01-19T11:37:31.313Z,99302.14
2023-01-19T11:40:05.624Z,99300.31
2023-01-19T11:42:36.770Z,99293.73
2023-01-19T11:45:13.244Z,99293.46
2023-01-19T11:47:49.431Z,99289.52
2023-01-19T11:50:23.929Z,99290.04
2023-01-19T11:52:59.482Z,99283.59
2023-01-19T11:55:42.499Z,99281.97
2023-01-19T11:58:16.533Z,99287.94
2023-01-19T12:01:06.664Z,99285.53
2023-01-19T12:03:42.613Z,99287.43
2023-01-19T12:06:15.463Z,99284.89
2023-01-19T12:09:01.679Z,99279.98
2023-01-19T12:11:37.512Z,99274.38
2023-01-19T12:14:15.002Z,99271.45
2023-01-19T12:16:43.945Z,99268.70
2023-01-19T12:19:18.759Z,99267.27
2023-01-19T12:21:48.663Z,99264.81
2023-01-19T12:24:33.448Z,99262.88
2023-01-19T12:27:17.684Z,99263.48
2023-01-19T12:29:46.593Z,99258.57
2023-01-19T12:32:14.842Z,99261.43
2023-01-19T12:34:46.897Z,99257.21
2023-01-19T12:37:27.996Z,99261.83
2023-01-19T12:40:22.357Z,99258.02
2023-01-19T12:43:00.908Z,99258.64
2023-01-19T12:45:35.042Z,99248.80
2023-01-19T12:48:05.149Z,99261.69
2023-01-19T12:50:38.342Z,99260.27
2023-01-19T12:53:19.524Z,99259.13
2023-01-19T12:55:59.947Z,99252.98
2023-01-19T12:58:28.678Z,99260.31
2023-01-19T13:01:19.362Z,99258.63
2023-01-19T13:04:03.906Z,99250.23
2023-01-19T13:07:10.658Z,99252.79
2023-01-19T13:09:40.233Z,99254.27
2023-01-19T13:12:14.653Z,99256.04
2023-01-19T13:14:43.952Z,99260.23
2023-01-19T13:17:32.206Z,99261.55
2023-01-19T13:20:28.637Z,99265.61
2023-01-19T13:23:14.938Z,99263.51
2023-01-19T13:25:53.471Z,99272.02
2023-01-19T13:28:30.865Z,99267.09
2023-01-19T13:31:02.829Z,99267.24
2023-01-19T13:33:40.856Z,99265.81
2023-01-19T13:36:20.789Z,99266.95
2023-01-19T13:38:51.529Z,99273.07
2023-01-19T13:41:24.530Z,99270.76
2023-01-19T13:44:01.801Z,99272.64
2023-01-19T13:46:31.456Z,99275.70
2023-01-19T13:49:13.395Z,99275.45
2023-01-19T13:51:41.798Z,99276.25
2023-01-19T13:54:16.323Z,99275.08
2023-01-19T13:56:51.457Z,99279.60
2023-01-19T13:59:19.639Z,99280.99
2023-01-19T14:01:49.436Z,99283.52
2023-01-19T14:04:38.143Z,99285.56
2023-01-19T14:07:26.247Z,99287.39
2023-01-19T14:10:16.813Z,99285.17
2023-01-19T14:12:58.636Z,99287.04
2023-01-19T14:15:29.201Z,99288.25
2023-01-19T14:18:16.312Z,99288.70
2023-01-19T14:21:14.370Z,99289.46
2023-01-19T14:23:51.899Z,99292.06
2023-01-19T14:26:49.256Z,99296.13
2023-01-19T14:29:33.100Z,99299.83
2023-01-19T14:32:01.575Z,99300.59
2023-01-19T14:34:45.108Z,99305.48
2023-01-19T14:37:13.532Z,99305.10
2023-01-19T14:39:47.196Z,99304.52
2023-01-19T14:42:21.118Z,99307.51
2023-01-19T14:44:52.983Z,99307.45
2023-01-19T14:47:43.487Z,99313.60
2023-01-19T14:50:18.446Z,99320.42
2023-01-19T14:53:03.390Z,99319.94
2023-01-19T14:55:43.846Z,99322.70
2023-01-19T14:58:14.181Z,99327.86
2023-01-19T15:00:43.813Z,99326.80
2023-01-19T15:03:12.312Z,99323.35
2023-01-19T15:05:44.833Z,99329.84
2023-01-19T15:08:37.740Z,99329.89
2023-01-19T15:11:33.858Z,99337.65
2023-01-19T15:14:03.125Z,99342.70
2023-01-19T15:16:34.355Z,99341.15
2023-01-19T15:19:02.692Z,99340.27
2023-01-19T15:21:31.047Z,99340.84
2023-01-19T15:23:59.421Z,99340.77
2023-01-19T15:26:27.936Z,99342.92
2023-01-19T15:28:56.497Z,99348.22
2023-01-19T15:31:26.450Z,99347.87
2023-01-19T15:33:54.980Z,99348.39
2023-01-19T15:36:25.558Z,99352.36
2023-01-19T15:38:54.195Z,99352.34
2023-01-19T15:41:28.136Z,99352.69
2023-01-19T15:43:57.024Z,99355.85
2023-01-19T15:46:26.260Z,99359.05
2023-01-19T15:48:57.375Z,99366.00
2023-01-19T15:51:26.788Z,99373.17
2023-01-19T15:53:55.925Z,99373.00
2023-01-19T15:56:27.143Z,99380.30
2023-01-19T15:58:57.047Z,99375.11
2023-01-19T16:01:32.535Z,99371.77
2023-01-19T16:04:04.660Z,99372.21
2023-01-19T16:06:33.971Z,99366.10
2023-01-19T16:09:04.018Z,99367.34
2023-01-19T16:11:35.394Z,99372.48
2023-01-19T16:14:03.866Z,99371.23
2023-01-19T16:16:32.323Z,99378.16
2023-01-19T16:19:00.889Z,99382.64
2023-01-19T16:21:29.302Z,99391.46
2023-01-19T16:24:00.214Z,99391.41
2023-01-19T16:26:37.496Z,99391.89
2023-01-19T16:29:09.022Z,99389.61
2023-01-19T16:31:38.836Z,99387.06
2023-01-19T16:34:08.519Z,99383.92
2023-01-19T16:36:43.017Z,99383.92
2023-01-19T16:39:14.366Z,99383.42
2023-01-19T16:41:45.413Z,99377.77
2023-01-19T16:44:16.246Z,99380.27
2023-01-19T16:46:49.935Z,99382.81
2023-01-19T16:49:21.417Z,99378.78
2023-01-19T16:51:50.825Z,99390.43
2023-01-19T16:54:25.985Z,99394.67
2023-01-19T16:56:56.340Z,99393.20
2023-01-19T16:59:27.630Z,99389.52
2023-01-19T17:01:57.443Z,99376.38
2023-01-19T17:04:27.553Z,99381.09
2023-01-19T17:06:56.379Z,99379.33
2023-01-19T17:09:24.745Z,99382.74
2023-01-19T17:11:53.220Z,99388.19
2023-01-19T17:14:22.333Z,99389.90
2023-01-19T17:16:51.481Z,99393.91
2023-01-19T17:19:22.287Z,99398.34
2023-01-19T17:21:51.264Z,99400.92
2023-01-19T17:24:19.642Z,99402.01
2023-01-19T17:26:48.985Z,99408.46
2023-01-19T17:29:18.953Z,99402.40
2023-01-19T17:31:50.800Z,99395.31
2023-01-19T17:34:22.711Z,99389.69
2023-01-19T17:36:51.801Z,99385.75
2023-01-19T17:39:20.273Z,99390.30
2023-01-19T17:41:50.355Z,99396.67
2023-01-19T17:44:20.210Z,99405.77
2023-01-19T17:46:49.199Z,99413.04
2023-01-19T17:49:19.444Z,99418.02
2023-01-19T17:51:54.685Z,99418.90
2023-01-19T17:54:23.765Z,99417.19
2023-01-19T17:56:52.569Z,99410.32
2023-01-19T17:59:21.273Z,99415.50
2023-01-19T18:01:52.944Z,99418.89
2023-01-19T18:04:22.261Z,99420.10
2023-01-19T18:06:51.043Z,99425.21
2023-01-19T18:09:19.689Z,99419.38
2023-01-19T18:11:48.605Z,99432.83
2023-01-19T18:14:19.967Z,99439.52
2023-01-19T18:16:49.640Z,99447.18
2023-01-19T18:19:22.545Z,99451.31
2023-01-19T18:21:52.142Z,99459.23
2023-01-19T18:24:21.358Z,99452.75
2023-01-19T18:26:50.563Z,99463.11
2023-01-19T18:29:20.885Z,99462.61
2023-01-19T18:31:50.020Z,99463.67
2023-01-19T18:34:20.451Z,99464.31
2023-01-19T18:36:50.114Z,99463.22
2023-01-19T18:39:20.894Z,99469.17
2023-01-19T18:41:51.246Z,99468.11
2023-01-19T18:44:20.892Z,99467.85
2023-01-19T18:46:50.302Z,99470.95
2023-01-19T18:49:18.991Z,99466.23
2023-01-19T18:51:47.774Z,99463.86
2023-01-19T18:54:17.676Z,99467.68
2023-01-19T18:56:47.813Z,99466.53
2023-01-19T18:59:17.850Z,99463.65
2023-01-19T19:01:47.555Z,99462.66
2023-01-19T19:04:16.853Z,99461.80
2023-01-19T19:06:45.641Z,99463.81
2023-01-19T19:09:14.428Z,99464.92
2023-01-19T19:11:44.054Z,99466.75
2023-01-19T19:14:13.262Z,99465.20
2023-01-19T19:16:42.447Z,99466.59
2023-01-19T19:19:15.852Z,99465.92
2023-01-19T19:21:46.181Z,99466.80
2023-01-19T19:24:15.514Z,99468.04
2023-01-19T19:26:45.076Z,99465.15
2023-01-19T19:29:14.809Z,99468.84
2023-01-19T19:31:44.672Z,99472.17
2023-01-19T19:34:16.387Z,99472.42
2023-01-19T19:36:47.622Z,99478.60
2023-01-19T19:39:16.762Z,99483.14
2023-01-19T19:41:48.398Z,99475.41
2023-01-19T19:44:17.548Z,99490.71
2023-01-19T19:46:46.634Z,99487.64
2023-01-19T19:49:21.517Z,99489.90
2023-01-19T19:51:51.543Z,99492.74
2023-01-19T19:54:20.223Z,99490.43
2023-01-19T19:56:52.490Z,99490.74
2023-01-19T19:59:36.709Z,99493.38
2023-01-19T20:02:05.486Z,99505.51
2023-01-19T20:04:36.677Z,99509.02
2023-01-19T20:07:05.383Z,99512.31
2023-01-19T20:09:36.601Z,99517.64
2023-01-19T20:12:06.354Z,99521.19
2023-01-19T20:14:36.771Z,99521.77
2023-01-19T20:17:07.267Z,99526.21
2023-01-19T20:19:37.257Z,99531.45
2023-01-19T20:22:08.339Z,99532.73
2023-01-19T20:24:38.184Z,99540.20
2023-01-19T20:27:08.106Z,99543.74
2023-01-19T20:29:38.614Z,99547.29
2023-01-19T20:32:11.185Z,99544.29
2023-01-19T20:34:40.917Z,99551.70
2023-01-19T20:37:13.474Z,99551.11
2023-01-19T20:39:43.908Z,99557.12
2023-01-19T20:42:17.417Z,99560.44
2023-01-19T20:44:50.740Z,99558.63
2023-01-19T20:47:22.160Z,99557.15
2023-01-19T20:49:51.461Z,99557.98
2023-01-19T20:52:21.870Z,99555.13
2023-01-19T20:54:52.918Z,99554.50
2023-01-19T20:57:22.417Z,99557.67
2023-01-19T20:59:52.334Z,99550.78
2023-01-19T21:02:21.789Z,99548.11
2023-01-19T21:04:53.827Z,99549.83
2023-01-19T21:07:27.717Z,99556.81
2023-01-19T21:09:57.767Z,99559.86
2023-01-19T21:12:26.729Z,99561.84
2023-01-19T21:14:55.696Z,99560.88
2023-01-19T21:17:25.955Z,99555.79
2023-01-19T21:19:55.500Z,99557.63
2023-01-19T21:22:27.822Z,99561.98
2023-01-19T21:24:58.248Z,99568.80
2023-01-19T21:27:27.742Z,99572.05
2023-01-19T21:29:59.091Z,99571.77
2023-01-19T21:32:29.770Z,99572.34
2023-01-19T21:34:58.570Z,99579.02
2023-01-19T21:37:31.295Z,99575.21
2023-01-19T21:40:00.151Z,99571.98
2023-01-19T21:42:29.255Z,99574.86
2023-01-19T21:44:57.745Z,99574.36
2023-01-19T21:47:27.054Z,99578.75
2023-01-19T21:49:55.657Z,99579.72
2023-01-19T21:52:24.011Z,99577.74
2023-01-19T21:54:52.702Z,99576.26
2023-01-19T21:57:21.103Z,99582.15
2023-01-19T21:59:49.675Z,99582.73
2023-01-19T22:02:33.347Z,99582.70
2023-01-19T22:05:06.743Z,99575.09
2023-01-19T22:07:35.085Z,99584.14
2023-01-19T22:10:06.474Z,99585.38
2023-01-19T22:12:35.168Z,99582.58
2023-01-19T22:15:03.483Z,99580.50
2023-01-19T22:17:31.678Z,99580.73
2023-01-19T22:20:00.045Z,99578.08
2023-01-19T22:22:28.363Z,99581.46
2023-01-19T22:24:56.674Z,99581.27
2023-01-19T22:27:25.681Z,99584.18
2023-01-19T22:29:54.209Z,99579.74
2023-01-19T22:32:22.406Z,99581.77
2023-01-19T22:34:50.765Z,99586.98
2023-01-19T22:37:19.089Z,99591.80
2023-01-19T22:39:47.423Z,99595.89
2023-01-19T22:42:15.880Z,99598.69
2023-01-19T22:44:44.466Z,99601.82
2023-01-19T22:47:12.714Z,99601.84
2023-01-19T22:49:41.287Z,99604.60
2023-01-19T22:52:09.942Z,99608.03
2023-01-19T22:54:38.303Z,99610.46
2023-01-19T22:57:08.403Z,99613.73
2023-01-19T22:59:36.748Z,99618.29
2023-01-19T23:02:05.202Z,99621.27
2023-01-19T23:04:33.662Z,99622.91
2023-01-19T23:07:05.489Z,99627.88
2023-01-19T23:09:34.484Z,99626.72
2023-01-19T23:12:02.690Z,99630.38
2023-01-19T23:14:31.047Z,99630.48
2023-01-19T23:16:59.271Z,99634.00
2023-01-19T23:19:27.985Z,99633.17
2023-01-19T23:21:56.337Z,99631.94
2023-01-19T23:24:24.507Z,99629.53
2023-01-19T23:26:52.711Z,99627.47
2023-01-19T23:29:20.994Z,99625.36
2023-01-19T23:31:50.028Z,99633.06
2023-01-19T23:34:18.325Z,99626.17
2023-01-19T23:36:47.549Z,99626.08
2023-01-19T23:39:19.840Z,99629.77
2023-01-19T23:41:48.652Z,99631.30
2023-01-19T23:44:17.563Z,99636.01
2023-01-19T23:46:46.027Z,99640.85
2023-01-19T23:49:14.335Z,99640.99
2023-01-19T23:51:42.563Z,99642.45
2023-01-19T23:54:12.333Z,99650.31
2023-01-19T23:56:42.694Z,99653.77
2023-01-19T23:59:13.469Z,99652.92
